sensor_id;sensor_type;location;lat;lon;timestamp;pressure;altitude;pressure_sealevel;temperature;humidity
47761;BME280;33524;55.434;38.520;2023-04-27T00:01:27;99578.25;;;6.70;70.76
47761;BME280;33524;55.434;38.520;2023-04-27T00:03:55;99584.09;;;6.73;69.79
47761;BME280;33524;55.434;38.520;2023-04-27T00:06:24;99589.22;;;6.75;69.57
47761;BME280;33524;55.434;38.520;2023-04-27T00:08:54;99588.91;;;6.79;69.39
47761;BME280;33524;55.434;38.520;2023-04-27T00:11:22;99596.75;;;6.79;69.36
47761;BME280;33524;55.434;38.520;2023-04-27T00:13:50;99573.87;;;6.57;72.47
47761;BME280;33524;55.434;38.520;2023-04-27T00:16:18;99591.63;;;6.65;71.30
47761;BME280;33524;55.434;38.520;2023-04-27T00:18:46;99592.88;;;6.59;71.50
47761;BME280;33524;55.434;38.520;2023-04-27T00:21:14;99580.28;;;6.53;70.11
47761;BME280;33524;55.434;38.520;2023-04-27T00:23:43;99592.06;;;6.46;70.70
47761;BME280;33524;55.434;38.520;2023-04-27T00:26:11;99593.53;;;6.50;70.28
47761;BME280;33524;55.434;38.520;2023-04-27T00:28:39;99583.72;;;6.54;70.25
47761;BME280;33524;55.434;38.520;2023-04-27T00:31:08;99587.34;;;5.45;81.49
47761;BME280;33524;55.434;38.520;2023-04-27T00:33:36;99587.38;;;4.90;90.64
47761;BME280;33524;55.434;38.520;2023-04-27T00:36:04;99585.66;;;5.17;81.54
47761;BME280;33524;55.434;38.520;2023-04-27T00:38:33;99582.22;;;5.17;80.03
47761;BME280;33524;55.434;38.520;2023-04-27T00:41:02;99573.34;;;5.34;77.08
47761;BME280;33524;55.434;38.520;2023-04-27T00:43:31;99569.97;;;5.04;80.31
47761;BME280;33524;55.434;38.520;2023-04-27T00:45:59;99572.28;;;5.09;78.43
47761;BME280;33524;55.434;38.520;2023-04-27T00:48:27;99571.38;;;5.77;74.29
47761;BME280;33524;55.434;38.520;2023-04-27T00:50:55;99582.13;;;5.73;73.90
47761;BME280;33524;55.434;38.520;2023-04-27T00:53:24;99558.53;;;5.74;72.93
47761;BME280;33524;55.434;38.520;2023-04-27T00:55:52;99588.25;;;5.99;72.23
47761;BME280;33524;55.434;38.520;2023-04-27T00:58:22;99581.50;;;5.82;73.10
47761;BME280;33524;55.434;38.520;2023-04-27T01:00:49;99593.12;;;5.91;72.30
47761;BME280;33524;55.434;38.520;2023-04-27T01:03:18;99581.31;;;5.85;72.55
47761;BME280;33524;55.434;38.520;2023-04-27T01:05:46;99590.59;;;5.49;74.68
47761;BME280;33524;55.434;38.520;2023-04-27T01:08:14;99591.97;;;4.86;79.03
47761;BME280;33524;55.434;38.520;2023-04-27T01:10:43;99599.06;;;5.53;74.17
47761;BME280;33524;55.434;38.520;2023-04-27T01:13:11;99599.00;;;5.67;73.00
47761;BME280;33524;55.434;38.520;2023-04-27T01:15:40;99595.09;;;5.60;72.82
47761;BME280;33524;55.434;38.520;2023-04-27T01:18:09;99594.03;;;5.77;72.13
47761;BME280;33524;55.434;38.520;2023-04-27T01:20:37;99602.81;;;5.89;71.60
47761;BME280;33524;55.434;38.520;2023-04-27T01:23:05;99603.38;;;5.94;71.19
47761;BME280;33524;55.434;38.520;2023-04-27T01:25:35;99584.88;;;5.84;71.24
47761;BME280;33524;55.434;38.520;2023-04-27T01:28:03;99595.44;;;5.68;72.26
47761;BME280;33524;55.434;38.520;2023-04-27T01:30:31;99595.06;;;5.74;71.93
47761;BME280;33524;55.434;38.520;2023-04-27T01:32:59;99587.47;;;5.02;81.39
47761;BME280;33524;55.434;38.520;2023-04-27T01:35:27;99589.81;;;4.35;86.18
47761;BME280;33524;55.434;38.520;2023-04-27T01:38:00;99592.88;;;4.42;86.60
47761;BME280;33524;55.434;38.520;2023-04-27T01:40:28;99591.28;;;4.39;87.01
47761;BME280;33524;55.434;38.520;2023-04-27T01:42:56;99585.62;;;4.47;83.26
47761;BME280;33524;55.434;38.520;2023-04-27T01:45:24;99589.16;;;4.89;78.31
47761;BME280;33524;55.434;38.520;2023-04-27T01:47:53;99584.34;;;5.24;74.84
47761;BME280;33524;55.434;38.520;2023-04-27T01:50:21;99601.28;;;5.59;73.09
47761;BME280;33524;55.434;38.520;2023-04-27T01:52:49;99606.81;;;5.54;72.83
47761;BME280;33524;55.434;38.520;2023-04-27T01:55:17;99606.63;;;5.43;73.13
47761;BME280;33524;55.434;38.520;2023-04-27T01:57:46;99606.72;;;5.41;73.24
47761;BME280;33524;55.434;38.520;2023-04-27T02:00:14;99610.25;;;5.55;72.35
47761;BME280;33524;55.434;38.520;2023-04-27T02:02:47;99607.81;;;5.52;72.50
47761;BME280;33524;55.434;38.520;2023-04-27T02:05:18;99608.75;;;5.51;72.36
47761;BME280;33524;55.434;38.520;2023-04-27T02:07:48;99607.34;;;5.18;73.33
47761;BME280;33524;55.434;38.520;2023-04-27T02:10:15;99618.19;;;5.39;72.99
47761;BME280;33524;55.434;38.520;2023-04-27T02:12:47;99613.53;;;4.45;81.69
47761;BME280;33524;55.434;38.520;2023-04-27T02:15:15;99613.56;;;4.15;87.34
47761;BME280;33524;55.434;38.520;2023-04-27T02:17:43;99621.69;;;4.24;87.92
47761;BME280;33524;55.434;38.520;2023-04-27T02:20:12;99618.00;;;4.86;77.22
47761;BME280;33524;55.434;38.520;2023-04-27T02:22:42;99623.38;;;5.12;75.09
47761;BME280;33524;55.434;38.520;2023-04-27T02:25:11;99626.72;;;5.14;74.53
47761;BME280;33524;55.434;38.520;2023-04-27T02:27:42;99635.37;;;5.14;74.20
47761;BME280;33524;55.434;38.520;2023-04-27T02:30:10;99632.03;;;5.12;74.18
47761;BME280;33524;55.434;38.520;2023-04-27T02:32:40;99628.59;;;4.69;78.40
47761;BME280;33524;55.434;38.520;2023-04-27T02:35:12;99635.28;;;4.58;78.31
47761;BME280;33524;55.434;38.520;2023-04-27T02:37:40;99635.66;;;5.10;75.02
47761;BME280;33524;55.434;38.520;2023-04-27T02:40:09;99643.59;;;5.50;72.73
47761;BME280;33524;55.434;38.520;2023-04-27T02:42:37;99638.88;;;5.69;71.69
47761;BME280;33524;55.434;38.520;2023-04-27T02:45:06;99652.66;;;5.71;71.34
47761;BME280;33524;55.434;38.520;2023-04-27T02:47:36;99651.75;;;4.88;81.20
47761;BME280;33524;55.434;38.520;2023-04-27T02:50:05;99651.22;;;4.97;76.35
47761;BME280;33524;55.434;38.520;2023-04-27T02:52:34;99652.41;;;5.20;74.58
47761;BME280;33524;55.434;38.520;2023-04-27T02:55:02;99652.28;;;5.36;73.59
47761;BME280;33524;55.434;38.520;2023-04-27T02:57:32;99654.12;;;5.48;72.92
47761;BME280;33524;55.434;38.520;2023-04-27T03:00:00;99661.22;;;5.73;71.77
47761;BME280;33524;55.434;38.520;2023-04-27T03:02:31;99662.38;;;5.96;70.62
47761;BME280;33524;55.434;38.520;2023-04-27T03:04:59;99665.03;;;6.09;70.03
47761;BME280;33524;55.434;38.520;2023-04-27T03:07:29;99671.41;;;6.18;69.80
47761;BME280;33524;55.434;38.520;2023-04-27T03:09:58;99666.50;;;6.26;69.58
47761;BME280;33524;55.434;38.520;2023-04-27T03:12:30;99671.34;;;6.32;69.59
47761;BME280;33524;55.434;38.520;2023-04-27T03:14:59;99669.91;;;6.41;69.50
47761;BME280;33524;55.434;38.520;2023-04-27T03:17:31;99674.00;;;6.45;69.67
47761;BME280;33524;55.434;38.520;2023-04-27T03:19:59;99685.69;;;6.52;69.56
47761;BME280;33524;55.434;38.520;2023-04-27T03:22:29;99678.28;;;6.59;69.55
47761;BME280;33524;55.434;38.520;2023-04-27T03:24:57;99688.53;;;6.75;69.03
47761;BME280;33524;55.434;38.520;2023-04-27T03:27:26;99684.53;;;6.82;68.78
47761;BME280;33524;55.434;38.520;2023-04-27T03:29:54;99678.06;;;6.87;68.67
47761;BME280;33524;55.434;38.520;2023-04-27T03:32:22;99676.41;;;6.99;68.48
47761;BME280;33524;55.434;38.520;2023-04-27T03:34:50;99682.56;;;7.11;68.01
47761;BME280;33524;55.434;38.520;2023-04-27T03:37:18;99689.44;;;7.25;67.58
47761;BME280;33524;55.434;38.520;2023-04-27T03:39:46;99687.63;;;7.38;67.17
47761;BME280;33524;55.434;38.520;2023-04-27T03:42:15;99690.31;;;7.50;66.84
47761;BME280;33524;55.434;38.520;2023-04-27T03:44:43;99689.00;;;7.68;66.47
47761;BME280;33524;55.434;38.520;2023-04-27T03:47:11;99682.91;;;7.80;66.31
47761;BME280;33524;55.434;38.520;2023-04-27T03:49:40;99688.78;;;7.95;66.77
47761;BME280;33524;55.434;38.520;2023-04-27T03:52:08;99693.75;;;8.11;65.69
47761;BME280;33524;55.434;38.520;2023-04-27T03:54:36;99691.88;;;8.24;65.96
47761;BME280;33524;55.434;38.520;2023-04-27T03:57:05;99691.28;;;8.45;65.09
47761;BME280;33524;55.434;38.520;2023-04-27T03:59:33;99687.38;;;8.62;64.73
47761;BME280;33524;55.434;38.520;2023-04-27T04:02:03;99704.84;;;8.85;64.00
47761;BME280;33524;55.434;38.520;2023-04-27T04:04:32;99704.16;;;9.06;63.57
47761;BME280;33524;55.434;38.520;2023-04-27T04:07:01;99695.69;;;9.25;63.13
47761;BME280;33524;55.434;38.520;2023-04-27T04:09:29;99704.00;;;9.53;62.58
47761;BME280;33524;55.434;38.520;2023-04-27T04:11:58;99705.03;;;9.84;62.59
47761;BME280;33524;55.434;38.520;2023-04-27T04:14:26;99700.53;;;10.07;62.82
47761;BME280;33524;55.434;38.520;2023-04-27T04:16:56;99702.34;;;10.39;62.47
47761;BME280;33524;55.434;38.520;2023-04-27T04:19:24;99701.44;;;10.70;62.09
47761;BME280;33524;55.434;38.520;2023-04-27T04:21:52;99704.37;;;10.98;61.54
47761;BME280;33524;55.434;38.520;2023-04-27T04:24:24;99714.59;;;11.22;61.36
47761;BME280;33524;55.434;38.520;2023-04-27T04:26:53;99706.81;;;11.51;60.81
47761;BME280;33524;55.434;38.520;2023-04-27T04:29:21;99713.25;;;11.78;60.75
47761;BME280;33524;55.434;38.520;2023-04-27T04:31:51;99715.66;;;12.01;60.45
47761;BME280;33524;55.434;38.520;2023-04-27T04:34:19;99710.81;;;12.25;60.43
47761;BME280;33524;55.434;38.520;2023-04-27T04:36:52;99716.50;;;12.50;59.76
47761;BME280;33524;55.434;38.520;2023-04-27T04:39:23;99714.38;;;12.83;59.69
47761;BME280;33524;55.434;38.520;2023-04-27T04:41:51;99725.44;;;13.06;59.41
47761;BME280;33524;55.434;38.520;2023-04-27T04:44:20;99723.44;;;13.27;59.23
47761;BME280;33524;55.434;38.520;2023-04-27T04:46:49;99726.16;;;13.45;59.41
47761;BME280;33524;55.434;38.520;2023-04-27T04:49:17;99730.34;;;13.66;58.64
47761;BME280;33524;55.434;38.520;2023-04-27T04:51:45;99733.38;;;13.99;58.96
47761;BME280;33524;55.434;38.520;2023-04-27T04:54:14;99736.03;;;14.17;58.96
47761;BME280;33524;55.434;38.520;2023-04-27T04:56:42;99741.91;;;14.46;58.23
47761;BME280;33524;55.434;38.520;2023-04-27T04:59:10;99738.12;;;14.67;58.43
47761;BME280;33524;55.434;38.520;2023-04-27T05:01:39;99738.31;;;14.91;57.88
47761;BME280;33524;55.434;38.520;2023-04-27T05:04:07;99736.41;;;15.28;57.87
47761;BME280;33524;55.434;38.520;2023-04-27T05:06:42;99718.59;;;15.46;57.22
47761;BME280;33524;55.434;38.520;2023-04-27T05:09:12;99726.06;;;15.93;56.37
47761;BME280;33524;55.434;38.520;2023-04-27T05:11:40;99723.81;;;16.31;55.46
47761;BME280;33524;55.434;38.520;2023-04-27T05:14:08;99723.62;;;16.74;55.81
47761;BME280;33524;55.434;38.520;2023-04-27T05:16:37;99734.75;;;17.02;54.82
47761;BME280;33524;55.434;38.520;2023-04-27T05:19:05;99734.69;;;17.27;54.27
47761;BME280;33524;55.434;38.520;2023-04-27T05:21:33;99733.75;;;17.59;55.09
47761;BME280;33524;55.434;38.520;2023-04-27T05:24:01;99732.47;;;17.86;54.87
47761;BME280;33524;55.434;38.520;2023-04-27T05:26:29;99723.00;;;18.15;54.10
47761;BME280;33524;55.434;38.520;2023-04-27T05:28:57;99730.72;;;18.48;53.21
47761;BME280;33524;55.434;38.520;2023-04-27T05:31:26;99730.69;;;18.79;53.66
47761;BME280;33524;55.434;38.520;2023-04-27T05:33:54;99732.25;;;19.03;53.42
47761;BME280;33524;55.434;38.520;2023-04-27T05:36:22;99735.03;;;19.25;52.55
47761;BME280;33524;55.434;38.520;2023-04-27T05:38:51;99736.78;;;19.47;52.29
47761;BME280;33524;55.434;38.520;2023-04-27T05:41:19;99716.34;;;19.54;51.61
47761;BME280;33524;55.434;38.520;2023-04-27T05:43:47;99730.16;;;19.94;53.07
47761;BME280;33524;55.434;38.520;2023-04-27T05:46:15;99724.75;;;20.24;51.07
47761;BME280;33524;55.434;38.520;2023-04-27T05:48:43;99731.06;;;20.60;50.99
47761;BME280;33524;55.434;38.520;2023-04-27T05:51:11;99733.06;;;20.79;50.23
47761;BME280;33524;55.434;38.520;2023-04-27T05:53:39;99737.53;;;21.00;50.88
47761;BME280;33524;55.434;38.520;2023-04-27T05:56:08;99742.16;;;21.13;52.09
47761;BME280;33524;55.434;38.520;2023-04-27T05:58:38;99737.84;;;21.19;51.50
47761;BME280;33524;55.434;38.520;2023-04-27T06:01:07;99732.16;;;21.28;49.99
47761;BME280;33524;55.434;38.520;2023-04-27T06:03:35;99739.56;;;21.33;51.13
47761;BME280;33524;55.434;38.520;2023-04-27T06:06:03;99738.91;;;21.52;50.62
47761;BME280;33524;55.434;38.520;2023-04-27T06:08:32;99739.47;;;21.96;49.20
47761;BME280;33524;55.434;38.520;2023-04-27T06:11:02;99735.47;;;22.27;50.65
47761;BME280;33524;55.434;38.520;2023-04-27T06:13:30;99742.44;;;22.34;49.81
47761;BME280;33524;55.434;38.520;2023-04-27T06:16:00;99724.56;;;22.68;48.49
47761;BME280;33524;55.434;38.520;2023-04-27T06:18:29;99735.88;;;23.10;48.52
47761;BME280;33524;55.434;38.520;2023-04-27T06:20:58;99745.19;;;22.94;47.26
47761;BME280;33524;55.434;38.520;2023-04-27T06:23:27;99744.47;;;22.19;50.58
47761;BME280;33524;55.434;38.520;2023-04-27T06:25:56;99748.87;;;22.87;49.00
47761;BME280;33524;55.434;38.520;2023-04-27T06:28:25;99740.50;;;23.62;47.15
47761;BME280;33524;55.434;38.520;2023-04-27T06:30:53;99745.84;;;23.62;47.43
47761;BME280;33524;55.434;38.520;2023-04-27T06:33:22;99740.75;;;24.30;45.82
47761;BME280;33524;55.434;38.520;2023-04-27T06:35:50;99744.13;;;24.83;45.46
47761;BME280;33524;55.434;38.520;2023-04-27T06:38:30;99741.25;;;25.03;45.57
47761;BME280;33524;55.434;38.520;2023-04-27T06:40:59;99745.34;;;25.30;44.37
47761;BME280;33524;55.434;38.520;2023-04-27T06:43:28;99746.78;;;25.33;44.18
47761;BME280;33524;55.434;38.520;2023-04-27T06:45:56;99744.88;;;25.33;45.12
47761;BME280;33524;55.434;38.520;2023-04-27T06:48:37;99740.47;;;25.21;44.64
47761;BME280;33524;55.434;38.520;2023-04-27T06:51:05;99748.97;;;25.73;44.06
47761;BME280;33524;55.434;38.520;2023-04-27T06:53:33;99754.81;;;23.42;40.37
47761;BME280;33524;55.434;38.520;2023-04-27T06:56:01;99750.50;;;25.07;45.97
47761;BME280;33524;55.434;38.520;2023-04-27T06:58:30;99755.56;;;25.58;44.45
47761;BME280;33524;55.434;38.520;2023-04-27T07:00:58;99751.22;;;26.25;43.06
47761;BME280;33524;55.434;38.520;2023-04-27T07:03:26;99751.34;;;25.51;44.89
47761;BME280;33524;55.434;38.520;2023-04-27T07:05:55;99753.94;;;25.57;45.08
47761;BME280;33524;55.434;38.520;2023-04-27T07:08:24;99750.16;;;26.68;42.71
47761;BME280;33524;55.434;38.520;2023-04-27T07:10:52;99738.31;;;26.57;42.32
47761;BME280;33524;55.434;38.520;2023-04-27T07:13:20;99760.16;;;27.14;41.55
47761;BME280;33524;55.434;38.520;2023-04-27T07:16:01;99749.25;;;27.09;41.31
47761;BME280;33524;55.434;38.520;2023-04-27T07:18:29;99750.53;;;27.42;41.05
47761;BME280;33524;55.434;38.520;2023-04-27T07:20:57;99749.59;;;27.36;40.74
47761;BME280;33524;55.434;38.520;2023-04-27T07:23:25;99754.31;;;27.41;41.00
47761;BME280;33524;55.434;38.520;2023-04-27T07:25:54;99754.44;;;27.87;39.95
47761;BME280;33524;55.434;38.520;2023-04-27T07:28:22;99758.16;;;27.22;41.46
47761;BME280;33524;55.434;38.520;2023-04-27T07:30:50;99748.97;;;27.98;39.85
47761;BME280;33524;55.434;38.520;2023-04-27T07:33:19;99756.25;;;28.27;39.46
47761;BME280;33524;55.434;38.520;2023-04-27T07:35:46;99747.16;;;27.64;34.03
47761;BME280;33524;55.434;38.520;2023-04-27T07:38:16;99754.34;;;25.43;42.68
47761;BME280;33524;55.434;38.520;2023-04-27T07:40:45;99759.19;;;26.31;43.74
47761;BME280;33524;55.434;38.520;2023-04-27T07:43:13;99756.06;;;27.47;41.08
47761;BME280;33524;55.434;38.520;2023-04-27T07:45:42;99756.81;;;27.60;40.49
47761;BME280;33524;55.434;38.520;2023-04-27T07:48:26;99752.72;;;28.26;38.64
47761;BME280;33524;55.434;38.520;2023-04-27T07:50:55;99753.19;;;28.23;38.65
47761;BME280;33524;55.434;38.520;2023-04-27T07:53:36;99749.16;;;28.88;37.79
47761;BME280;33524;55.434;38.520;2023-04-27T07:56:05;99759.19;;;28.25;38.79
47761;BME280;33524;55.434;38.520;2023-04-27T07:58:33;99751.59;;;28.39;38.73
47761;BME280;33524;55.434;38.520;2023-04-27T08:01:01;99751.09;;;28.42;38.15
47761;BME280;33524;55.434;38.520;2023-04-27T08:03:41;99761.69;;;27.34;38.92
47761;BME280;33524;55.434;38.520;2023-04-27T08:06:10;99754.91;;;27.31;38.42
47761;BME280;33524;55.434;38.520;2023-04-27T08:08:39;99749.22;;;28.43;37.54
47761;BME280;33524;55.434;38.520;2023-04-27T08:11:10;99749.37;;;29.21;36.60
47761;BME280;33524;55.434;38.520;2023-04-27T08:13:39;99745.81;;;28.81;36.66
47761;BME280;33524;55.434;38.520;2023-04-27T08:16:06;99756.63;;;26.78;37.42
47761;BME280;33524;55.434;38.520;2023-04-27T08:18:34;99748.28;;;27.15;28.75
47761;BME280;33524;55.434;38.520;2023-04-27T08:21:15;99741.09;;;27.56;38.94
47761;BME280;33524;55.434;38.520;2023-04-27T08:23:43;99739.28;;;29.77;35.10
47761;BME280;33524;55.434;38.520;2023-04-27T08:26:14;99749.41;;;26.07;37.26
47761;BME280;33524;55.434;38.520;2023-04-27T08:28:43;99746.06;;;27.36;31.68
47761;BME280;33524;55.434;38.520;2023-04-27T08:31:11;99730.41;;;29.21;36.39
47761;BME280;33524;55.434;38.520;2023-04-27T08:33:40;99749.72;;;29.90;34.96
47761;BME280;33524;55.434;38.520;2023-04-27T08:36:21;99751.81;;;27.80;26.94
47761;BME280;33524;55.434;38.520;2023-04-27T08:39:11;99743.00;;;25.71;31.01
47761;BME280;33524;55.434;38.520;2023-04-27T08:41:41;99753.34;;;27.35;39.07
47761;BME280;33524;55.434;38.520;2023-04-27T08:44:10;99747.16;;;27.64;38.55
47761;BME280;33524;55.434;38.520;2023-04-27T08:46:38;99754.91;;;25.26;30.32
47761;BME280;33524;55.434;38.520;2023-04-27T08:49:07;99758.19;;;24.85;33.57
47761;BME280;33524;55.434;38.520;2023-04-27T08:51:36;99752.38;;;26.17;37.87
47761;BME280;33524;55.434;38.520;2023-04-27T08:54:04;99743.38;;;27.24;37.87
47761;BME280;33524;55.434;38.520;2023-04-27T08:56:32;99735.31;;;29.63;33.63
47761;BME280;33524;55.434;38.520;2023-04-27T08:59:02;99736.25;;;28.28;29.37
47761;BME280;33524;55.434;38.520;2023-04-27T09:01:32;99741.81;;;28.84;35.66
47761;BME280;33524;55.434;38.520;2023-04-27T09:04:01;99748.56;;;27.26;32.97
47761;BME280;33524;55.434;38.520;2023-04-27T09:06:31;99739.75;;;26.71;38.27
47761;BME280;33524;55.434;38.520;2023-04-27T09:09:00;99745.62;;;27.39;31.42
47761;BME280;33524;55.434;38.520;2023-04-27T09:11:37;99747.19;;;25.48;29.33
47761;BME280;33524;55.434;38.520;2023-04-27T09:14:30;99742.31;;;26.66;38.59
47761;BME280;33524;55.434;38.520;2023-04-27T09:17:03;99738.44;;;27.21;37.78
47761;BME280;33524;55.434;38.520;2023-04-27T09:19:45;99735.63;;;27.28;35.44
47761;BME280;33524;55.434;38.520;2023-04-27T09:22:14;99732.31;;;27.90;36.72
47761;BME280;33524;55.434;38.520;2023-04-27T09:24:50;99733.81;;;28.94;34.93
47761;BME280;33524;55.434;38.520;2023-04-27T09:27:20;99727.91;;;28.46;26.04
47761;BME280;33524;55.434;38.520;2023-04-27T09:29:48;99737.56;;;27.96;36.80
47761;BME280;33524;55.434;38.520;2023-04-27T09:32:30;99732.81;;;27.75;27.67
47761;BME280;33524;55.434;38.520;2023-04-27T09:34:58;99735.81;;;25.65;29.01
47761;BME280;33524;55.434;38.520;2023-04-27T09:37:26;99749.84;;;26.34;30.73
47761;BME280;33524;55.434;38.520;2023-04-27T09:39:54;99743.00;;;26.62;31.22
47761;BME280;33524;55.434;38.520;2023-04-27T09:42:23;99748.56;;;24.95;32.28
47761;BME280;33524;55.434;38.520;2023-04-27T09:44:52;99750.31;;;27.08;36.42
47761;BME280;33524;55.434;38.520;2023-04-27T09:47:34;99746.00;;;25.44;33.33
47761;BME280;33524;55.434;38.520;2023-04-27T09:50:04;99734.03;;;29.26;33.09
47761;BME280;33524;55.434;38.520;2023-04-27T09:52:32;99744.97;;;26.54;32.94
47761;BME280;33524;55.434;38.520;2023-04-27T09:55:02;99747.88;;;23.73;33.99
47761;BME280;33524;55.434;38.520;2023-04-27T09:57:52;99744.59;;;24.98;38.18
47761;BME280;33524;55.434;38.520;2023-04-27T10:03:42;99713.63;;;30.82;29.50
47761;BME280;33524;55.434;38.520;2023-04-27T10:09:21;99756.59;;;23.62;32.30
47761;BME280;33524;55.434;38.520;2023-04-27T10:11:54;99755.16;;;26.10;28.49
47761;BME280;33524;55.434;38.520;2023-04-27T10:14:23;99748.16;;;24.35;29.81
47761;BME280;33524;55.434;38.520;2023-04-27T10:16:53;99746.53;;;27.09;28.58
47761;BME280;33524;55.434;38.520;2023-04-27T10:19:23;99747.66;;;25.45;28.97
47761;BME280;33524;55.434;38.520;2023-04-27T10:22:00;99746.56;;;25.09;34.20
47761;BME280;33524;55.434;38.520;2023-04-27T10:24:40;99750.66;;;24.68;29.59
47761;BME280;33524;55.434;38.520;2023-04-27T10:27:27;99752.62;;;24.16;29.78
47761;BME280;33524;55.434;38.520;2023-04-27T10:29:55;99749.19;;;24.72;30.26
47761;BME280;33524;55.434;38.520;2023-04-27T10:32:24;99746.97;;;24.31;30.74
47761;BME280;33524;55.434;38.520;2023-04-27T10:35:02;99738.09;;;27.82;36.02
47761;BME280;33524;55.434;38.520;2023-04-27T10:37:42;99737.78;;;28.52;31.95
47761;BME280;33524;55.434;38.520;2023-04-27T10:40:11;99739.00;;;26.64;27.65
47761;BME280;33524;55.434;38.520;2023-04-27T10:43:06;99739.03;;;24.74;30.59
47761;BME280;33524;55.434;38.520;2023-04-27T10:45:34;99738.34;;;25.04;30.82
47761;BME280;33524;55.434;38.520;2023-04-27T10:48:04;99741.63;;;25.06;30.26
47761;BME280;33524;55.434;38.520;2023-04-27T10:50:33;99737.47;;;24.28;29.94
47761;BME280;33524;55.434;38.520;2023-04-27T10:53:04;99729.94;;;24.12;30.47
47761;BME280;33524;55.434;38.520;2023-04-27T10:55:34;99731.81;;;26.46;27.20
47761;BME280;33524;55.434;38.520;2023-04-27T10:58:02;99734.81;;;26.26;28.37
47761;BME280;33524;55.434;38.520;2023-04-27T11:00:37;99745.41;;;26.51;25.35
47761;BME280;33524;55.434;38.520;2023-04-27T11:03:22;99749.72;;;23.79;30.04
47761;BME280;33524;55.434;38.520;2023-04-27T11:06:02;99755.09;;;23.86;34.00
47761;BME280;33524;55.434;38.520;2023-04-27T11:08:31;99756.25;;;23.38;31.17
47761;BME280;33524;55.434;38.520;2023-04-27T11:11:03;99755.28;;;22.72;31.98
47761;BME280;33524;55.434;38.520;2023-04-27T11:13:33;99765.37;;;21.82;33.25
47761;BME280;33524;55.434;38.520;2023-04-27T11:16:03;99767.66;;;22.60;32.88
47761;BME280;33524;55.434;38.520;2023-04-27T11:18:36;99779.06;;;20.96;36.19
47761;BME280;33524;55.434;38.520;2023-04-27T11:21:09;99769.28;;;20.82;37.08
47761;BME280;33524;55.434;38.520;2023-04-27T11:23:39;99794.41;;;19.48;40.84
47761;BME280;33524;55.434;38.520;2023-04-27T11:26:12;99803.28;;;19.64;42.41
47761;BME280;33524;55.434;38.520;2023-04-27T11:31:28;99799.59;;;17.97;48.40
47761;BME280;33524;55.434;38.520;2023-04-27T11:34:06;99804.00;;;17.65;49.50
47761;BME280;33524;55.434;38.520;2023-04-27T11:36:34;99802.31;;;17.88;51.20
47761;BME280;33524;55.434;38.520;2023-04-27T11:39:03;99793.75;;;17.53;50.69
47761;BME280;33524;55.434;38.520;2023-04-27T11:41:34;99800.72;;;17.46;51.12
47761;BME280;33524;55.434;38.520;2023-04-27T11:44:05;99804.59;;;16.53;52.99
47761;BME280;33524;55.434;38.520;2023-04-27T11:46:35;99807.94;;;17.05;51.81
47761;BME280;33524;55.434;38.520;2023-04-27T11:49:05;99807.38;;;17.50;50.06
47761;BME280;33524;55.434;38.520;2023-04-27T11:51:34;99806.34;;;17.68;49.61
47761;BME280;33524;55.434;38.520;2023-04-27T11:54:06;99812.25;;;17.94;48.44
47761;BME280;33524;55.434;38.520;2023-04-27T11:57:05;99810.13;;;17.73;48.92
47761;BME280;33524;55.434;38.520;2023-04-27T11:59:34;99812.25;;;17.94;49.83
47761;BME280;33524;55.434;38.520;2023-04-27T12:02:14;99801.94;;;18.46;48.91
47761;BME280;33524;55.434;38.520;2023-04-27T12:04:54;99798.75;;;18.82;47.73
47761;BME280;33524;55.434;38.520;2023-04-27T12:07:23;99790.59;;;18.52;48.06
47761;BME280;33524;55.434;38.520;2023-04-27T12:09:51;99795.06;;;18.83;47.36
47761;BME280;33524;55.434;38.520;2023-04-27T12:12:33;99795.78;;;19.14;46.60
47761;BME280;33524;55.434;38.520;2023-04-27T12:15:01;99790.56;;;19.66;45.38
47761;BME280;33524;55.434;38.520;2023-04-27T12:17:33;99793.16;;;19.74;44.51
47761;BME280;33524;55.434;38.520;2023-04-27T12:20:01;99778.38;;;20.08;43.74
47761;BME280;33524;55.434;38.520;2023-04-27T12:22:33;99773.25;;;19.91;42.64
47761;BME280;33524;55.434;38.520;2023-04-27T12:25:14;99767.59;;;20.37;43.75
47761;BME280;33524;55.434;38.520;2023-04-27T12:27:41;99766.88;;;20.93;40.42
47761;BME280;33524;55.434;38.520;2023-04-27T12:30:12;99755.28;;;22.72;36.45
47761;BME280;33524;55.434;38.520;2023-04-27T12:32:41;99761.28;;;23.86;35.15
47761;BME280;33524;55.434;38.520;2023-04-27T12:35:09;99750.56;;;24.18;32.66
47761;BME280;33524;55.434;38.520;2023-04-27T12:37:38;99751.41;;;24.12;30.84
47761;BME280;33524;55.434;38.520;2023-04-27T12:40:06;99749.84;;;24.36;30.63
47761;BME280;33524;55.434;38.520;2023-04-27T12:42:35;99741.37;;;25.51;30.97
47761;BME280;33524;55.434;38.520;2023-04-27T12:45:04;99739.56;;;26.01;30.56
47761;BME280;33524;55.434;38.520;2023-04-27T12:47:32;99741.91;;;25.42;29.21
47761;BME280;33524;55.434;38.520;2023-04-27T12:50:04;99742.78;;;25.72;29.81
47761;BME280;33524;55.434;38.520;2023-04-27T12:52:32;99749.75;;;25.80;29.15
47761;BME280;33524;55.434;38.520;2023-04-27T12:55:00;99742.56;;;26.34;28.08
47761;BME280;33524;55.434;38.520;2023-04-27T12:57:29;99741.87;;;26.81;26.33
47761;BME280;33524;55.434;38.520;2023-04-27T13:00:10;99732.59;;;26.89;26.90
47761;BME280;33524;55.434;38.520;2023-04-27T13:02:38;99736.50;;;27.57;25.03
47761;BME280;33524;55.434;38.520;2023-04-27T13:05:07;99738.34;;;28.09;24.53
47761;BME280;33524;55.434;38.520;2023-04-27T13:07:54;99739.88;;;28.05;24.32
47761;BME280;33524;55.434;38.520;2023-04-27T13:10:21;99729.22;;;28.27;25.57
47761;BME280;33524;55.434;38.520;2023-04-27T13:13:02;99732.13;;;28.08;24.01
47761;BME280;33524;55.434;38.520;2023-04-27T13:15:30;99729.22;;;28.44;25.60
47761;BME280;33524;55.434;38.520;2023-04-27T13:17:58;99740.56;;;28.57;24.59